sensor_id;sensor_type;location;lat;lon;timestamp;pressure;altitude;pressure_sealevel;temperature;humidity
18504;BME280;9381;54.244;10.074;2024-01-07T00:03:59;101704.84;;;3.50;77.26
18504;BME280;9381;54.244;10.074;2024-01-07T00:08:59;101701.28;;;3.59;77.56
18504;BME280;9381;54.244;10.074;2024-01-07T00:13:59;101719.41;;;3.65;77.17
18504;BME280;9381;54.244;10.074;2024-01-07T00:19:00;101724.63;;;3.66;77.98
18504;BME280;9381;54.244;10.074;2024-01-07T00:24:00;101725.09;;;3.79;79.26
18504;BME280;9381;54.244;10.074;2024-01-07T00:29:00;101726.31;;;3.67;80.99
18504;BME280;9381;54.244;10.074;2024-01-07T00:34:01;101730.22;;;3.73;82.41
18504;BME280;9381;54.244;10.074;2024-01-07T00:39:01;101738.63;;;3.78;83.02
18504;BME280;9381;54.244;10.074;2024-01-07T00:44:01;101736.66;;;3.80;83.26
18504;BME280;9381;54.244;10.074;2024-01-07T00:49:02;101755.88;;;3.66;83.72
18504;BME280;9381;54.244;10.074;2024-01-07T00:54:02;101756.44;;;3.60;84.08
18504;BME280;9381;54.244;10.074;2024-01-07T00:59:02;101755.28;;;3.72;82.20
18504;BME280;9381;54.244;10.074;2024-01-07T01:04:03;101765.75;;;3.65;82.80
18504;BME280;9381;54.244;10.074;2024-01-07T01:09:03;101758.44;;;3.58;82.82
18504;BME280;9381;54.244;10.074;2024-01-07T01:14:04;101769.00;;;3.59;82.02
18504;BME280;9381;54.244;10.074;2024-01-07T01:19:04;101775.59;;;3.65;81.44
18504;BME280;9381;54.244;10.074;2024-01-07T01:24:04;101779.81;;;3.67;80.86
18504;BME280;9381;54.244;10.074;2024-01-07T01:29:05;101781.50;;;3.68;80.57
18504;BME280;9381;54.244;10.074;2024-01-07T01:34:05;101789.09;;;3.63;80.59
18504;BME280;9381;54.244;10.074;2024-01-07T01:39:05;101799.56;;;3.57;80.69
18504;BME280;9381;54.244;10.074;2024-01-07T01:44:06;101810.50;;;3.73;80.52
18504;BME280;9381;54.244;10.074;2024-01-07T01:49:07;101814.16;;;3.72;80.54
18504;BME280;9381;54.244;10.074;2024-01-07T01:54:08;101813.16;;;3.73;81.09
18504;BME280;9381;54.244;10.074;2024-01-07T01:59:09;101812.53;;;3.52;82.11
18504;BME280;9381;54.244;10.074;2024-01-07T02:04:09;101814.47;;;3.59;82.37
18504;BME280;9381;54.244;10.074;2024-01-07T02:09:10;101828.59;;;3.42;83.33
18504;BME280;9381;54.244;10.074;2024-01-07T02:14:10;101827.28;;;3.56;82.45
18504;BME280;9381;54.244;10.074;2024-01-07T02:19:10;101824.06;;;3.52;82.54
18504;BME280;9381;54.244;10.074;2024-01-07T02:24:17;101830.59;;;3.40;82.30
18504;BME280;9381;54.244;10.074;2024-01-07T02:29:17;101842.97;;;3.32;82.31
18504;BME280;9381;54.244;10.074;2024-01-07T02:34:18;101840.41;;;3.40;81.59
18504;BME280;9381;54.244;10.074;2024-01-07T02:39:18;101849.72;;;3.36;79.82
18504;BME280;9381;54.244;10.074;2024-01-07T02:44:19;101848.00;;;3.54;78.94
18504;BME280;9381;54.244;10.074;2024-01-07T02:49:19;101865.47;;;3.39;79.82
18504;BME280;9381;54.244;10.074;2024-01-07T02:54:19;101867.84;;;3.42;79.55
18504;BME280;9381;54.244;10.074;2024-01-07T02:59:20;101881.22;;;3.42;79.51
18504;BME280;9381;54.244;10.074;2024-01-07T03:04:20;101885.75;;;3.41;79.62
18504;BME280;9381;54.244;10.074;2024-01-07T03:09:20;101891.94;;;3.23;80.46
18504;BME280;9381;54.244;10.074;2024-01-07T03:14:21;101889.00;;;3.45;81.33
18504;BME280;9381;54.244;10.074;2024-01-07T03:19:23;101898.00;;;3.34;82.53
18504;BME280;9381;54.244;10.074;2024-01-07T03:24:23;101900.94;;;3.22;83.86
18504;BME280;9381;54.244;10.074;2024-01-07T03:29:24;101910.81;;;3.40;85.08
18504;BME280;9381;54.244;10.074;2024-01-07T03:34:24;101914.34;;;3.31;85.84
18504;BME280;9381;54.244;10.074;2024-01-07T03:39:24;101912.22;;;3.35;88.01
18504;BME280;9381;54.244;10.074;2024-01-07T03:44:25;101915.59;;;3.27;88.59
18504;BME280;9381;54.244;10.074;2024-01-07T03:49:25;101925.84;;;3.13;89.36
18504;BME280;9381;54.244;10.074;2024-01-07T03:54:25;101932.47;;;3.28;88.62
18504;BME280;9381;54.244;10.074;2024-01-07T03:59:25;101928.94;;;3.08;90.08
18504;BME280;9381;54.244;10.074;2024-01-07T04:04:27;101941.75;;;3.05;89.15
18504;BME280;9381;54.244;10.074;2024-01-07T04:09:27;101944.53;;;2.94;90.12
18504;BME280;9381;54.244;10.074;2024-01-07T04:14:27;101937.03;;;2.69;90.11
18504;BME280;9381;54.244;10.074;2024-01-07T04:19:28;101945.38;;;2.85;89.67
18504;BME280;9381;54.244;10.074;2024-01-07T04:24:28;101962.09;;;2.87;89.84
18504;BME280;9381;54.244;10.074;2024-01-07T04:29:28;101969.16;;;2.88;89.34
18504;BME280;9381;54.244;10.074;2024-01-07T04:34:28;101970.13;;;2.87;89.50
18504;BME280;9381;54.244;10.074;2024-01-07T04:39:29;101976.91;;;2.91;89.85
18504;BME280;9381;54.244;10.074;2024-01-07T04:44:29;101977.19;;;2.88;89.07
18504;BME280;9381;54.244;10.074;2024-01-07T04:49:29;101983.66;;;2.95;88.33
18504;BME280;9381;54.244;10.074;2024-01-07T04:54:30;101987.44;;;2.83;87.97
18504;BME280;9381;54.244;10.074;2024-01-07T04:59:30;101987.66;;;2.71;88.24
18504;BME280;9381;54.244;10.074;2024-01-07T05:04:31;102001.88;;;2.71;88.85
18504;BME280;9381;54.244;10.074;2024-01-07T05:09:32;102000.91;;;2.72;89.02
18504;BME280;9381;54.244;10.074;2024-01-07T05:14:33;102008.38;;;2.87;88.80
18504;BME280;9381;54.244;10.074;2024-01-07T05:19:33;102007.50;;;2.78;87.65
18504;BME280;9381;54.244;10.074;2024-01-07T05:24:36;102022.16;;;2.83;87.12
18504;BME280;9381;54.244;10.074;2024-01-07T05:29:37;102024.88;;;2.63;87.23
18504;BME280;9381;54.244;10.074;2024-01-07T05:34:38;102027.16;;;2.67;86.91
18504;BME280;9381;54.244;10.074;2024-01-07T05:39:38;102035.38;;;2.55;86.70
18504;BME280;9381;54.244;10.074;2024-01-07T05:44:38;102030.69;;;2.38;87.28
18504;BME280;9381;54.244;10.074;2024-01-07T05:49:40;102036.34;;;2.44;86.23
18504;BME280;9381;54.244;10.074;2024-01-07T05:54:41;102041.03;;;2.31;86.95
18504;BME280;9381;54.244;10.074;2024-01-07T05:59:41;102044.69;;;2.30;86.50
18504;BME280;9381;54.244;10.074;2024-01-07T06:04:41;102049.19;;;2.30;86.73
18504;BME280;9381;54.244;10.074;2024-01-07T06:09:42;102064.56;;;2.17;87.22
18504;BME280;9381;54.244;10.074;2024-01-07T06:14:42;102075.09;;;2.18;86.90
18504;BME280;9381;54.244;10.074;2024-01-07T06:19:42;102071.53;;;2.08;86.78
18504;BME280;9381;54.244;10.074;2024-01-07T06:24:43;102085.50;;;2.01;87.39
18504;BME280;9381;54.244;10.074;2024-01-07T06:29:43;102092.19;;;1.95;87.72
18504;BME280;9381;54.244;10.074;2024-01-07T06:34:43;102092.19;;;1.95;87.51
18504;BME280;9381;54.244;10.074;2024-01-07T06:39:44;102102.59;;;1.78;87.98
18504;BME280;9381;54.244;10.074;2024-01-07T06:44:44;102110.31;;;1.81;88.35
18504;BME280;9381;54.244;10.074;2024-01-07T06:49:44;102112.75;;;1.84;88.12
18504;BME280;9381;54.244;10.074;2024-01-07T06:54:45;102122.63;;;1.72;88.51
18504;BME280;9381;54.244;10.074;2024-01-07T06:59:45;102126.94;;;1.84;87.80
18504;BME280;9381;54.244;10.074;2024-01-07T07:04:46;102137.59;;;1.84;87.53
18504;BME280;9381;54.244;10.074;2024-01-07T07:09:46;102137.38;;;1.87;87.33
18504;BME280;9381;54.244;10.074;2024-01-07T07:14:47;102148.81;;;1.78;86.52
18504;BME280;9381;54.244;10.074;2024-01-07T07:19:47;102142.50;;;1.68;87.25
18504;BME280;9381;54.244;10.074;2024-01-07T07:24:47;102154.78;;;1.60;87.75
18504;BME280;9381;54.244;10.074;2024-01-07T07:29:48;102169.44;;;1.65;86.79
18504;BME280;9381;54.244;10.074;2024-01-07T07:34:48;102170.19;;;1.56;86.82
18504;BME280;9381;54.244;10.074;2024-01-07T07:39:48;102176.59;;;1.54;86.64
18504;BME280;9381;54.244;10.074;2024-01-07T07:44:49;102188.59;;;1.59;86.08
18504;BME280;9381;54.244;10.074;2024-01-07T07:49:50;102198.03;;;1.63;85.87
18504;BME280;9381;54.244;10.074;2024-01-07T07:54:51;102201.09;;;1.59;85.88
18504;BME280;9381;54.244;10.074;2024-01-07T07:59:51;102207.50;;;1.56;84.83
18504;BME280;9381;54.244;10.074;2024-01-07T08:04:51;102212.84;;;1.56;85.72
18504;BME280;9381;54.244;10.074;2024-01-07T08:09:52;102223.50;;;1.56;85.40
18504;BME280;9381;54.244;10.074;2024-01-07T08:14:53;102227.28;;;1.32;85.38
18504;BME280;9381;54.244;10.074;2024-01-07T08:19:53;102238.41;;;1.37;85.87
18504;BME280;9381;54.244;10.074;2024-01-07T08:24:54;102235.63;;;1.60;84.58
18504;BME280;9381;54.244;10.074;2024-01-07T08:29:54;102246.53;;;1.57;84.07
18504;BME280;9381;54.244;10.074;2024-01-07T08:34:54;102250.66;;;1.50;83.48
18504;BME280;9381;54.244;10.074;2024-01-07T08:39:55;102256.25;;;1.69;82.86
18504;BME280;9381;54.244;10.074;2024-01-07T08:44:56;102259.84;;;1.68;82.13
18504;BME280;9381;54.244;10.074;2024-01-07T08:49:56;102269.34;;;1.61;81.96
18504;BME280;9381;54.244;10.074;2024-01-07T08:54:57;102279.50;;;1.45;81.10
18504;BME280;9381;54.244;10.074;2024-01-07T08:59:57;102279.50;;;1.56;80.16
18504;BME280;9381;54.244;10.074;2024-01-07T09:04:57;102289.69;;;1.62;80.66
18504;BME280;9381;54.244;10.074;2024-01-07T09:09:58;102288.81;;;1.73;80.58
18504;BME280;9381;54.244;10.074;2024-01-07T09:15:00;102296.72;;;1.74;79.38
18504;BME280;9381;54.244;10.074;2024-01-07T09:20:01;102298.66;;;1.83;79.46
18504;BME280;9381;54.244;10.074;2024-01-07T09:25:05;102290.38;;;1.86;79.58
18504;BME280;9381;54.244;10.074;2024-01-07T09:30:07;102300.34;;;1.73;79.44
18504;BME280;9381;54.244;10.074;2024-01-07T09:35:10;102299.25;;;1.87;79.25
18504;BME280;9381;54.244;10.074;2024-01-07T09:40:11;102301.56;;;1.91;79.80
18504;BME280;9381;54.244;10.074;2024-01-07T09:45:13;102312.44;;;2.10;78.60
18504;BME280;9381;54.244;10.074;2024-01-07T09:50:13;102316.66;;;2.24;77.94
18504;BME280;9381;54.244;10.074;2024-01-07T09:55:26;102310.22;;;2.26;77.27
18504;BME280;9381;54.244;10.074;2024-01-07T10:00:28;102315.72;;;2.14;75.32
18504;BME280;9381;54.244;10.074;2024-01-07T10:05:29;102311.50;;;2.43;73.04
18504;BME280;9381;54.244;10.074;2024-01-07T10:10:30;102312.59;;;2.72;69.20
18504;BME280;9381;54.244;10.074;2024-01-07T10:15:32;102312.06;;;3.09;66.03
18504;BME280;9381;54.244;10.074;2024-01-07T10:20:33;102311.00;;;3.21;65.55
18504;BME280;9381;54.244;10.074;2024-01-07T10:25:36;102311.81;;;3.42;64.92
18504;BME280;9381;54.244;10.074;2024-01-07T10:30:40;102319.97;;;3.91;61.72
18504;BME280;9381;54.244;10.074;2024-01-07T10:35:44;102319.88;;;4.11;61.19
18504;BME280;9381;54.244;10.074;2024-01-07T10:40:47;102309.91;;;5.82;60.29
18504;BME280;9381;54.244;10.074;2024-01-07T10:45:50;102308.59;;;6.93;56.74
18504;BME280;9381;54.244;10.074;2024-01-07T10:50:55;102313.00;;;7.62;55.41
18504;BME280;9381;54.244;10.074;2024-01-07T10:56:00;102325.03;;;7.50;55.37
18504;BME280;9381;54.244;10.074;2024-01-07T11:01:03;102319.84;;;7.82;55.55
18504;BME280;9381;54.244;10.074;2024-01-07T11:06:31;102312.63;;;9.05;53.65
18504;BME280;9381;54.244;10.074;2024-01-07T11:11:38;102316.41;;;9.75;52.28
18504;BME280;9381;54.244;10.074;2024-01-07T11:16:42;102307.16;;;8.42;52.03
18504;BME280;9381;54.244;10.074;2024-01-07T11:21:46;102308.69;;;7.77;54.93
18504;BME280;9381;54.244;10.074;2024-01-07T11:26:46;102315.16;;;7.33;53.92
18504;BME280;9381;54.244;10.074;2024-01-07T11:31:47;102312.16;;;7.36;54.18
18504;BME280;9381;54.244;10.074;2024-01-07T11:36:47;102308.03;;;7.50;54.75
18504;BME280;9381;54.244;10.074;2024-01-07T11:41:48;102311.28;;;6.93;54.77
18504;BME280;9381;54.244;10.074;2024-01-07T11:46:50;102329.06;;;7.46;53.36
18504;BME280;9381;54.244;10.074;2024-01-07T11:51:51;102314.22;;;6.99;54.21
18504;BME280;9381;54.244;10.074;2024-01-07T11:56:51;102316.47;;;6.24;55.97
18504;BME280;9381;54.244;10.074;2024-01-07T12:01:51;102319.41;;;5.03;58.00
18504;BME280;9381;54.244;10.074;2024-01-07T12:06:52;102325.31;;;4.97;60.50
18504;BME280;9381;54.244;10.074;2024-01-07T12:11:53;102324.88;;;5.75;57.93
18504;BME280;9381;54.244;10.074;2024-01-07T12:16:55;102335.16;;;5.44;59.11
18504;BME280;9381;54.244;10.074;2024-01-07T12:22:07;102330.25;;;4.63;59.90
18504;BME280;9381;54.244;10.074;2024-01-07T12:27:08;102336.63;;;4.91;59.48
18504;BME280;9381;54.244;10.074;2024-01-07T12:32:08;102337.88;;;3.19;62.19
18504;BME280;9381;54.244;10.074;2024-01-07T12:37:13;102333.03;;;2.93;63.30
18504;BME280;9381;54.244;10.074;2024-01-07T12:42:13;102343.28;;;3.49;62.82
18504;BME280;9381;54.244;10.074;2024-01-07T12:47:14;102344.66;;;3.74;62.42
18504;BME280;9381;54.244;10.074;2024-01-07T12:52:15;102339.81;;;3.58;62.13
18504;BME280;9381;54.244;10.074;2024-01-07T12:57:15;102342.69;;;3.25;62.80
18504;BME280;9381;54.244;10.074;2024-01-07T13:02:15;102353.53;;;2.72;65.79
18504;BME280;9381;54.244;10.074;2024-01-07T13:07:16;102350.88;;;2.30;67.95
18504;BME280;9381;54.244;10.074;2024-01-07T13:12:16;102339.97;;;2.22;68.78
18504;BME280;9381;54.244;10.074;2024-01-07T13:17:17;102343.97;;;1.94;71.25
18504;BME280;9381;54.244;10.074;2024-01-07T13:22:17;102353.47;;;1.98;71.80
18504;BME280;9381;54.244;10.074;2024-01-07T13:27:18;102344.25;;;1.91;72.94
18504;BME280;9381;54.244;10.074;2024-01-07T13:32:18;102361.19;;;2.12;72.90
18504;BME280;9381;54.244;10.074;2024-01-07T13:37:19;102359.03;;;2.17;73.35
18504;BME280;9381;54.244;10.074;2024-01-07T13:42:20;102365.59;;;1.80;74.82
18504;BME280;9381;54.244;10.074;2024-01-07T13:47:20;102367.28;;;1.70;75.02
18504;BME280;9381;54.244;10.074;2024-01-07T13:52:21;102371.16;;;1.77;75.16
18504;BME280;9381;54.244;10.074;2024-01-07T13:57:21;102365.59;;;1.91;75.16
18504;BME280;9381;54.244;10.074;2024-01-07T14:02:22;102375.53;;;1.89;71.98
18504;BME280;9381;54.244;10.074;2024-01-07T14:07:22;102365.59;;;1.80;71.30
18504;BME280;9381;54.244;10.074;2024-01-07T14:12:24;102374.56;;;2.01;70.36
18504;BME280;9381;54.244;10.074;2024-01-07T14:17:25;102376.97;;;1.93;70.64
18504;BME280;9381;54.244;10.074;2024-01-07T14:22:26;102382.31;;;1.93;70.36
18504;BME280;9381;54.244;10.074;2024-01-07T14:27:26;102388.13;;;1.76;72.20
18504;BME280;9381;54.244;10.074;2024-01-07T14:32:27;102391.41;;;1.80;71.79
18504;BME280;9381;54.244;10.074;2024-01-07T14:37:27;102396.13;;;1.76;70.95
18504;BME280;9381;54.244;10.074;2024-01-07T14:42:28;102400.88;;;1.84;69.70
18504;BME280;9381;54.244;10.074;2024-01-07T14:47:28;102408.03;;;1.83;70.70
18504;BME280;9381;54.244;10.074;2024-01-07T14:52:28;102401.47;;;1.76;69.52
18504;BME280;9381;54.244;10.074;2024-01-07T14:57:29;102403.66;;;1.60;69.68
18504;BME280;9381;54.244;10.074;2024-01-07T15:02:29;102405.00;;;1.66;68.30
18504;BME280;9381;54.244;10.074;2024-01-07T15:07:29;102409.47;;;1.65;67.62
18504;BME280;9381;54.244;10.074;2024-01-07T15:12:30;102420.03;;;1.67;68.47
18504;BME280;9381;54.244;10.074;2024-01-07T15:17:35;102414.78;;;1.65;67.85
18504;BME280;9381;54.244;10.074;2024-01-07T15:22:35;102422.31;;;1.60;67.33
18504;BME280;9381;54.244;10.074;2024-01-07T15:27:36;102421.81;;;1.66;67.71
18504;BME280;9381;54.244;10.074;2024-01-07T15:32:36;102427.16;;;1.66;68.35
18504;BME280;9381;54.244;10.074;2024-01-07T15:37:37;102436.72;;;1.47;68.96
18504;BME280;9381;54.244;10.074;2024-01-07T15:42:38;102437.88;;;1.32;70.57
18504;BME280;9381;54.244;10.074;2024-01-07T15:47:38;102439.41;;;1.23;72.14
18504;BME280;9381;54.244;10.074;2024-01-07T15:52:39;102453.69;;;0.99;72.87
18504;BME280;9381;54.244;10.074;2024-01-07T15:57:46;102465.50;;;1.07;72.90
18504;BME280;9381;54.244;10.074;2024-01-07T16:02:47;102466.91;;;0.77;72.31
18504;BME280;9381;54.244;10.074;2024-01-07T16:07:47;102466.94;;;0.64;72.10
18504;BME280;9381;54.244;10.074;2024-01-07T16:12:47;102481.19;;;0.76;72.64
18504;BME280;9381;54.244;10.074;2024-01-07T16:17:48;102483.97;;;0.74;73.93
18504;BME280;9381;54.244;10.074;2024-01-07T16:22:48;102476.03;;;0.85;74.60
18504;BME280;9381;54.244;10.074;2024-01-07T16:27:48;102490.25;;;0.73;73.68
18504;BME280;9381;54.244;10.074;2024-01-07T16:32:49;102493.44;;;0.42;74.80
18504;BME280;9381;54.244;10.074;2024-01-07T16:37:49;102505.25;;;0.74;74.20
18504;BME280;9381;54.244;10.074;2024-01-07T16:42:50;102509.25;;;0.56;73.60
18504;BME280;9381;54.244;10.074;2024-01-07T16:47:50;102506.16;;;0.62;73.52
18504;BME280;9381;54.244;10.074;2024-01-07T16:52:51;102520.44;;;0.61;73.41
18504;BME280;9381;54.244;10.074;2024-01-07T16:57:53;102519.59;;;0.48;73.71
18504;BME280;9381;54.244;10.074;2024-01-07T17:02:53;102525.78;;;0.36;74.07
18504;BME280;9381;54.244;10.074;2024-01-07T17:07:54;102530.03;;;0.64;74.73
18504;BME280;9381;54.244;10.074;2024-01-07T17:12:54;102536.19;;;0.64;75.06
18504;BME280;9381;54.244;10.074;2024-01-07T17:17:54;102535.38;;;0.51;74.84
18504;BME280;9381;54.244;10.074;2024-01-07T17:22:58;102539.09;;;0.49;74.87
18504;BME280;9381;54.244;10.074;2024-01-07T17:27:58;102540.03;;;0.60;74.69
18504;BME280;9381;54.244;10.074;2024-01-07T17:32:58;102545.78;;;0.54;75.06
18504;BME280;9381;54.244;10.074;2024-01-07T17:38:00;102554.06;;;0.75;74.47
18504;BME280;9381;54.244;10.074;2024-01-07T17:43:00;102562.78;;;0.77;75.31
18504;BME280;9381;54.244;10.074;2024-01-07T17:48:02;102564.25;;;0.93;75.09
18504;BME280;9381;54.244;10.074;2024-01-07T17:53:04;102566.81;;;0.82;74.85
18504;BME280;9381;54.244;10.074;2024-01-07T17:58:07;102571.28;;;0.82;74.15
18504;BME280;9381;54.244;10.074;2024-01-07T18:03:07;102564.09;;;0.71;73.62
18504;BME280;9381;54.244;10.074;2024-01-07T18:08:08;102570.34;;;0.83;72.63
18504;BME280;9381;54.244;10.074;2024-01-07T18:13:08;102574.94;;;0.68;73.13
18504;BME280;9381;54.244;10.074;2024-01-07T18:18:13;102568.69;;;0.69;73.27
18504;BME280;9381;54.244;10.074;2024-01-07T18:23:13;102574.66;;;0.60;73.73
18504;BME280;9381;54.244;10.074;2024-01-07T18:28:15;102571.34;;;0.69;73.96
18504;BME280;9381;54.244;10.074;2024-01-07T18:33:15;102579.00;;;0.61;74.89
18504;BME280;9381;54.244;10.074;2024-01-07T18:38:15;102584.97;;;0.65;75.98
18504;BME280;9381;54.244;10.074;2024-01-07T18:43:15;102583.59;;;0.59;76.40
18504;BME280;9381;54.244;10.074;2024-01-07T18:48:16;102592.00;;;0.78;76.79
18504;BME280;9381;54.244;10.074;2024-01-07T18:53:16;102600.50;;;0.71;77.05
18504;BME280;9381;54.244;10.074;2024-01-07T18:58:17;102604.75;;;0.86;77.31
18504;BME280;9381;54.244;10.074;2024-01-07T19:03:17;102607.34;;;0.75;77.74
18504;BME280;9381;54.244;10.074;2024-01-07T19:08:17;102602.81;;;0.88;78.24
18504;BME280;9381;54.244;10.074;2024-01-07T19:13:18;102609.94;;;1.00;78.32
18504;BME280;9381;54.244;10.074;2024-01-07T19:18:18;102609.09;;;0.99;79.06
18504;BME280;9381;54.244;10.074;2024-01-07T19:23:18;102609.16;;;1.10;80.18
18504;BME280;9381;54.244;10.074;2024-01-07T19:28:19;102616.59;;;1.18;81.43
18504;BME280;9381;54.244;10.074;2024-01-07T19:33:19;102623.22;;;1.12;82.80
18504;BME280;9381;54.244;10.074;2024-01-07T19:38:19;102626.19;;;1.20;83.54
18504;BME280;9381;54.244;10.074;2024-01-07T19:43:20;102631.06;;;1.39;83.90
18504;BME280;9381;54.244;10.074;2024-01-07T19:48:20;102631.47;;;1.45;84.65
18504;BME280;9381;54.244;10.074;2024-01-07T19:53:20;102629.88;;;1.66;84.74
18504;BME280;9381;54.244;10.074;2024-01-07T19:58:21;102642.38;;;1.66;84.68
18504;BME280;9381;54.244;10.074;2024-01-07T20:03:21;102644.47;;;1.73;85.03
18504;BME280;9381;54.244;10.074;2024-01-07T20:08:24;102660.47;;;1.73;84.87
18504;BME280;9381;54.244;10.074;2024-01-07T20:13:24;102653.38;;;1.61;85.30
18504;BME280;9381;54.244;10.074;2024-01-07T20:18:25;102658.81;;;1.83;84.64
18504;BME280;9381;54.244;10.074;2024-01-07T20:23:27;102656.50;;;1.79;84.24
18504;BME280;9381;54.244;10.074;2024-01-07T20:28:27;102662.63;;;1.92;83.97
18504;BME280;9381;54.244;10.074;2024-01-07T20:33:27;102667.72;;;1.95;84.59
18504;BME280;9381;54.244;10.074;2024-01-07T20:38:28;102671.81;;;1.88;84.36
18504;BME280;9381;54.244;10.074;2024-01-07T20:43:28;102685.72;;;1.80;84.71
18504;BME280;9381;54.244;10.074;2024-01-07T20:48:28;102667.97;;;1.92;84.36
18504;BME280;9381;54.244;10.074;2024-01-07T20:53:30;102677.00;;;1.78;84.26
18504;BME280;9381;54.244;10.074;2024-01-07T20:58:31;102685.94;;;1.77;83.90
18504;BME280;9381;54.244;10.074;2024-01-07T21:03:31;102681.47;;;1.78;84.15
18504;BME280;9381;54.244;10.074;2024-01-07T21:08:32;102686.66;;;1.92;84.07
18504;BME280;9381;54.244;10.074;2024-01-07T21:13:33;102690.81;;;1.83;84.39
18504;BME280;9381;54.244;10.074;2024-01-07T21:18:34;102691.13;;;1.91;84.62
18504;BME280;9381;54.244;10.074;2024-01-07T21:23:35;102700.13;;;2.01;84.02
18504;BME280;9381;54.244;10.074;2024-01-07T21:28:35;102689.09;;;1.95;83.74
18504;BME280;9381;54.244;10.074;2024-01-07T21:33:35;102694.66;;;1.92;82.88
18504;BME280;9381;54.244;10.074;2024-01-07T21:38:38;102707.38;;;1.88;83.09
18504;BME280;9381;54.244;10.074;2024-01-07T21:43:39;102706.22;;;1.80;82.20
18504;BME280;9381;54.244;10.074;2024-01-07T21:48:40;102711.09;;;1.86;81.56
18504;BME280;9381;54.244;10.074;2024-01-07T21:53:40;102706.78;;;1.96;80.86
18504;BME280;9381;54.244;10.074;2024-01-07T21:58:41;102717.28;;;1.86;81.56
18504;BME280;9381;54.244;10.074;2024-01-07T22:03:41;102723.41;;;1.76;82.27
18504;BME280;9381;54.244;10.074;2024-01-07T22:08:41;102722.38;;;1.66;81.63
18504;BME280;9381;54.244;10.074;2024-01-07T22:13:44;102719.13;;;1.50;82.04
18504;BME280;9381;54.244;10.074;2024-01-07T22:18:44;102726.19;;;1.38;82.39
18504;BME280;9381;54.244;10.074;2024-01-07T22:23:45;102724.44;;;1.50;81.49
18504;BME280;9381;54.244;10.074;2024-01-07T22:28:47;102729.81;;;1.37;80.68
18504;BME280;9381;54.244;10.074;2024-01-07T22:33:47;102726.41;;;1.35;80.12
18504;BME280;9381;54.244;10.074;2024-01-07T22:38:48;102720.25;;;1.10;80.35
18504;BME280;9381;54.244;10.074;2024-01-07T22:43:48;102727.47;;;1.20;80.38
18504;BME280;9381;54.244;10.074;2024-01-07T22:48:48;102717.28;;;1.14;79.86
18504;BME280;9381;54.244;10.074;2024-01-07T22:53:49;102729.81;;;1.12;80.40
18504;BME280;9381;54.244;10.074;2024-01-07T22:58:49;102724.94;;;1.06;80.34
18504;BME280;9381;54.244;10.074;2024-01-07T23:03:49;102728.13;;;1.24;79.79
18504;BME280;9381;54.244;10.074;2024-01-07T23:08:51;102728.13;;;1.24;80.32
18504;BME280;9381;54.244;10.074;2024-01-07T23:13:51;102729.41;;;1.18;80.16
18504;BME280;9381;54.244;10.074;2024-01-07T23:18:52;102735.69;;;1.17;80.56
18504;BME280;9381;54.244;10.074;2024-01-07T23:23:52;102731.94;;;1.32;81.35
18504;BME280;9381;54.244;10.074;2024-01-07T23:28:52;102723.03;;;1.08;82.97
18504;BME280;9381;54.244;10.074;2024-01-07T23:33:53;102740.06;;;1.18;83.73
18504;BME280;9381;54.244;10.074;2024-01-07T23:38:54;102735.56;;;1.31;83.45
18504;BME280;9381;54.244;10.074;2024-01-07T23:43:55;102731.50;;;1.38;83.83
18504;BME280;9381;54.244;10.074;2024-01-07T23:48:56;102744.50;;;1.43;85.25
18504;BME280;9381;54.244;10.074;2024-01-07T23:53:56;102753.97;;;1.59;85.10
18504;BME280;9381;54.244;10.074;2024-01-07T23:58:57;102755.31;;;1.77;84.50
